Terminal Aerodrome Forecast
Issued by NWS

Home | Current Version | Previous Version | Text Only | Print | Product List | Glossary On
Versions: 1 2 3 4 5 6 7 8 9 10 11 12 13 14 15 16 17 18 19 20
000
FTUS45 KRIW 021700
TAFRKS
TAF
KRKS 021737Z 0218/0318 06005KT P6SM -SN SCT014 OVC022
      TEMPO 0218/0222 1/2SM SN OVC012
     FM022200 08007KT 3SM -SN OVC015
     FM030200 26011KT 1 1/2SM -SN SCT006 OVC012
     FM031500 26008KT 4SM -SN OVC020=

USA.gov is the U.S. government's official web portal to all federal, state and local government web resources and services.